< < Back
Terminal Aerodrome Forecast


Current Version              Previous Versions:   1  2  3  4  5  6  7  8  9  

Terminal Aerodrome Forecast

898
FTUS44 KMOB 050535
TAFMOB
TAF
KMOB 050535Z 0506/0606 10005KT P6SM FEW080 SCT250
     FM051100 10006KT 6SM BR SCT080
     FM051500 09012KT P6SM SCT050
     FM060300 12004KT P6SM SCT080=



Latest METAR

294
SAUS80 KWBC 051900
MTRMOB
METAR KMOB 051856Z 08008KT 10SM FEW060 27/13 A3018 RMK AO2 SLP216
T02720133


USA.gov is the U.S. government's official web portal to all federal, state and local government web resources and services.